»·PEaware :: SWA4295 KLAS-KSAN

SWA4295 :: KLAS-KSAN

FLIGHT INFORMATION

Flight Status: Arrived
Operator:
Southwest Airlines
More flights by this operator :: More flights under this callsign
Pilot: Dave P. (45)
Aircraft: BOEING 737-800
(B738)
More flights by this aircraft type
Origin: KLAS McCarran Intl
United States
Destination: KSAN San Diego Intl-Lindbergh
United States
More flights between these airports :: More routes between these airports
Route: +BOACH8 LVELL LUCKI1
File this flight plan on PilotEdge
Remarks: RMK / SIMBRIEF
Altitude:
(Current/Filed)
28,000ft
Speed:
(Current/Filed)
465kts
Departed: 02-Feb-20 09:04 AM
Arrived: 02-Feb-20 09:51 AM
Distance/Time
Traveled:
225nm/0:46
Distance/Time
To Go:
Arrived

Flight Plot

Page will automatically refresh every two minutes.

Flight plan parsing failed; only flown route is shown


Map Options




Map Legend


Flown Route
Filed Route
Departure Airport
Arrival Airport
Navaid (VOR, NDB)
Fix

Horizontal Profiles

Position Reports

Time Latitude Longitude Heading Altitude Ground
Speed
02-Feb-20 08:41 36.079566 -115.146699 27 2189ft 0kts
02-Feb-20 08:42 36.079566 -115.146699 27 2189ft 0kts
02-Feb-20 08:43 36.079566 -115.146699 27 2189ft 0kts
02-Feb-20 08:44 36.079566 -115.146699 27 2189ft 0kts
02-Feb-20 08:45 36.079566 -115.146699 27 2189ft 0kts
02-Feb-20 08:46 36.079566 -115.146699 27 2189ft 0kts
02-Feb-20 08:47 36.079566 -115.146699 27 2189ft 0kts
02-Feb-20 08:48 36.079566 -115.146699 27 2189ft 0kts
02-Feb-20 08:49 36.079566 -115.146699 27 2189ft 0kts
02-Feb-20 08:50 36.079566 -115.146699 27 2189ft 0kts
02-Feb-20 08:50 36.079566 -115.146699 27 2189ft 0kts
02-Feb-20 08:52 36.079566 -115.146699 27 2189ft 0kts
02-Feb-20 08:53 36.079566 -115.146699 27 2189ft 0kts
02-Feb-20 08:53 36.079566 -115.146699 27 2189ft 0kts
02-Feb-20 08:55 36.079435 -115.146782 27 2189ft 2kts
02-Feb-20 08:56 36.078939 -115.147397 107 2189ft 1kts
02-Feb-20 08:56 36.078992 -115.147530 122 2189ft 0kts
02-Feb-20 08:58 36.078992 -115.147530 122 2189ft 0kts
02-Feb-20 08:58 36.078897 -115.147382 144 2189ft 7kts
02-Feb-20 08:59 36.078273 -115.141054 90 2189ft 22kts
02-Feb-20 09:00 36.078278 -115.132982 90 2189ft 22kts
02-Feb-20 09:01 36.078288 -115.125046 89 2189ft 22kts
02-Feb-20 09:02 36.076985 -115.121244 179 2189ft 10kts
02-Feb-20 09:03 36.076408 -115.126251 269 2189ft 63kts
02-Feb-20 09:04 36.076362 -115.177309 270 3852ft 169kts
02-Feb-20 09:05 36.071002 -115.248964 238 5426ft 258kts
02-Feb-20 09:06 36.003763 -115.285715 198 7002ft 275kts
02-Feb-20 09:07 35.929838 -115.306908 185 8367ft 275kts
02-Feb-20 09:08 35.851199 -115.314566 180 11178ft 304kts
02-Feb-20 09:09 35.757088 -115.303701 176 12912ft 360kts
02-Feb-20 09:10 35.654996 -115.294775 183 15877ft 372kts
02-Feb-20 09:11 35.549809 -115.299757 183 18592ft 387kts
02-Feb-20 09:12 35.439495 -115.304125 184 21025ft 403kts
02-Feb-20 09:13 35.325520 -115.308613 184 23150ft 417kts
02-Feb-20 09:14 35.207560 -115.313251 184 25031ft 430kts
02-Feb-20 09:15 35.086143 -115.318042 184 26713ft 443kts
02-Feb-20 09:16 34.962396 -115.322889 184 28092ft 446kts
02-Feb-20 09:17 34.839178 -115.327690 184 28108ft 442kts
02-Feb-20 09:18 34.719757 -115.357124 201 28113ft 437kts
02-Feb-20 09:19 34.605341 -115.407801 201 28116ft 438kts
02-Feb-20 09:20 34.490697 -115.457925 201 28118ft 439kts
02-Feb-20 09:21 34.375531 -115.507961 201 28123ft 439kts
02-Feb-20 09:22 34.266721 -115.573005 213 28124ft 437kts
02-Feb-20 09:23 34.158561 -115.639997 203 28118ft 439kts
02-Feb-20 09:24 34.044386 -115.693271 203 28112ft 440kts
02-Feb-20 09:25 33.930602 -115.746756 203 28101ft 440kts
02-Feb-20 09:26 33.817000 -115.802309 204 28084ft 439kts
02-Feb-20 09:27 33.706117 -115.855419 203 28065ft 426kts
02-Feb-20 09:28 33.597581 -115.906000 203 26404ft 410kts
02-Feb-20 09:29 33.502259 -115.972163 230 24390ft 391kts
02-Feb-20 09:30 33.439088 -116.075669 236 22391ft 380kts
02-Feb-20 09:31 33.379511 -116.177999 236 20448ft 369kts
02-Feb-20 09:32 33.310463 -116.264278 212 18811ft 359kts
02-Feb-20 09:33 33.222090 -116.317921 208 17148ft 340kts
02-Feb-20 09:34 33.142534 -116.364328 208 15909ft 309kts
02-Feb-20 09:35 33.065920 -116.408993 207 14119ft 305kts
02-Feb-20 09:36 32.992338 -116.456797 219 12811ft 298kts
02-Feb-20 09:37 32.919459 -116.495943 182 11492ft 298kts
02-Feb-20 09:38 32.837073 -116.497179 182 10241ft 292kts
02-Feb-20 09:39 32.757690 -116.498989 188 9273ft 276kts
02-Feb-20 09:40 32.715729 -116.563642 252 9010ft 257kts
02-Feb-20 09:41 32.706877 -116.648139 264 8125ft 258kts
02-Feb-20 09:42 32.700236 -116.732687 263 7008ft 254kts
02-Feb-20 09:43 32.693686 -116.813034 263 6244ft 226kts
02-Feb-20 09:44 32.686560 -116.886656 256 5268ft 214kts
02-Feb-20 09:45 32.674643 -116.951340 282 4107ft 203kts
02-Feb-20 09:46 32.691242 -117.015419 285 3373ft 202kts
02-Feb-20 09:47 32.705866 -117.075479 285 2159ft 173kts
02-Feb-20 09:48 32.718227 -117.126440 287 1150ft 149kts
02-Feb-20 09:49 32.729556 -117.173141 286 157ft 144kts
02-Feb-20 09:50 32.734116 -117.195036 197 23ft 1kts
02-Feb-20 09:51 32.733448 -117.195305 227 23ft 7kts
02-Feb-20 09:52 32.733145 -117.195691 227 23ft 0kts
02-Feb-20 09:53 32.733145 -117.195691 227 23ft 0kts

Navigation Log

Ident Type
Flight plan parsing failed, navigation log unavailable